createdAt,value
2022-08-28T00:00:12.898Z,96281.59
2022-08-28T00:02:42.966Z,96272.78
2022-08-28T00:05:12.877Z,96289.16
2022-08-28T00:07:46.975Z,96281.22
2022-08-28T00:10:18.970Z,96279.41
2022-08-28T00:12:49.194Z,96274.38
2022-08-28T00:15:20.335Z,96274.38
2022-08-28T00:17:51.351Z,96278.28
2022-08-28T00:20:23.167Z,96279.41
2022-08-28T00:22:53.179Z,96277.28
2022-08-28T00:25:24.599Z,96272.06
2022-08-28T00:27:55.606Z,96276.47
2022-08-28T00:30:27.901Z,96279.41
2022-08-28T00:33:00.288Z,96268.19
2022-08-28T00:35:30.362Z,96275.97
2022-08-28T00:37:59.316Z,96269.16
2022-08-28T00:40:32.943Z,96269.47
2022-08-28T00:43:04.501Z,96258.25
2022-08-28T00:45:39.326Z,96261.34
2022-08-28T00:48:10.381Z,96267.66
2022-08-28T00:51:00.347Z,96268.66
2022-08-28T00:53:32.851Z,96262.03
2022-08-28T00:56:10.363Z,96266.41
2022-08-28T00:58:44.916Z,96262.63
2022-08-28T01:01:14.703Z,96263.44
2022-08-28T01:03:46.311Z,96268.47
2022-08-28T01:06:16.634Z,96274.47
2022-08-28T01:08:50.602Z,96269.47
2022-08-28T01:11:21.002Z,96269.97
2022-08-28T01:13:54.343Z,96259.41
2022-08-28T01:16:28.365Z,96279.84
2022-08-28T01:19:05.467Z,96279.69
2022-08-28T01:21:40.871Z,96248.25
2022-08-28T01:24:14.713Z,96279.34
2022-08-28T01:26:44.245Z,96278.28
2022-08-28T01:29:13.225Z,96277.47
2022-08-28T01:31:43.263Z,96282.66
2022-08-28T01:34:13.099Z,96279.91
2022-08-28T01:36:43.440Z,96281.03
2022-08-28T01:39:15.986Z,96279.75
2022-08-28T01:41:47.500Z,96284.25
2022-08-28T01:44:18.259Z,96285.38
2022-08-28T01:46:47.750Z,96280.19
2022-08-28T01:49:17.115Z,96289.28
2022-08-28T01:51:46.889Z,96290.91
2022-08-28T01:54:19.230Z,96286.41
2022-08-28T01:56:48.025Z,96286.41
2022-08-28T01:59:17.107Z,96291.25
2022-08-28T02:01:46.790Z,96294.81
2022-08-28T02:04:16.854Z,96296.44
2022-08-28T02:06:45.419Z,96285.75
2022-08-28T02:09:15.021Z,96295.97
2022-08-28T02:11:46.571Z,96288.47
2022-08-28T02:14:16.706Z,96292.84
2022-08-28T02:16:45.438Z,96294.94
2022-08-28T02:19:14.398Z,96286.31
2022-08-28T02:21:42.839Z,96285.34
2022-08-28T02:24:12.082Z,96300.03
2022-08-28T02:26:41.027Z,96293.72
2022-08-28T02:29:10.750Z,96295.19
2022-08-28T02:31:40.131Z,96294.66
2022-08-28T02:34:11.034Z,96292.22
2022-08-28T02:36:43.034Z,96286.84
2022-08-28T02:39:12.111Z,96286.84
2022-08-28T02:41:41.311Z,96287.97
2022-08-28T02:44:11.263Z,96291.84
2022-08-28T02:46:40.335Z,96266.81
2022-08-28T02:49:08.659Z,96285.34
2022-08-28T02:51:37.884Z,96282.88
2022-08-28T02:54:06.314Z,96282.06
2022-08-28T02:56:35.443Z,96284.81
2022-08-28T02:59:04.288Z,96284.81
2022-08-28T03:01:34.969Z,96283.53
2022-08-28T03:04:03.811Z,96288.53
2022-08-28T03:06:34.154Z,96284.66
2022-08-28T03:09:02.736Z,96286.09
2022-08-28T03:11:31.207Z,96286.72
2022-08-28T03:14:02.942Z,96270.81
2022-08-28T03:16:32.886Z,96287.97
2022-08-28T03:19:03.758Z,96283.25
2022-08-28T03:21:32.909Z,96280.22
2022-08-28T03:24:00.641Z,96285.53
2022-08-28T03:26:29.681Z,96279.19
2022-08-28T03:28:59.726Z,96290.53
2022-08-28T03:31:33.089Z,96280.94
2022-08-28T03:34:03.882Z,96286.97
2022-08-28T03:36:34.236Z,96286.97
2022-08-28T03:39:05.871Z,96291.47
2022-08-28T03:41:35.395Z,96288.22
2022-08-28T03:44:05.058Z,96298.72
2022-08-28T03:46:34.750Z,96292.41
2022-08-28T03:49:06.499Z,96291.56
2022-08-28T03:51:36.105Z,96298.19
2022-08-28T03:54:05.576Z,96302.72
2022-08-28T03:56:34.513Z,96301.91
2022-08-28T03:59:05.691Z,96293.94
2022-08-28T04:01:34.896Z,96310.97
2022-08-28T04:04:05.657Z,96308.53
2022-08-28T04:06:34.010Z,96308.00
2022-08-28T04:09:05.060Z,96308.31
2022-08-28T04:11:38.349Z,96309.94
2022-08-28T04:14:07.522Z,96299.22
2022-08-28T04:16:36.722Z,96307.59
2022-08-28T04:19:07.281Z,96311.38
2022-08-28T04:21:36.127Z,96310.03
2022-08-28T04:24:09.407Z,96307.59
2022-08-28T04:26:38.434Z,96310.88
2022-08-28T04:29:08.137Z,96304.53
2022-08-28T04:31:37.795Z,96304.84
2022-08-28T04:34:09.195Z,96299.88
2022-08-28T04:36:39.391Z,96309.22
2022-08-28T04:39:10.210Z,96308.41
2022-08-28T04:41:39.514Z,96315.53
2022-08-28T04:44:08.943Z,96315.53
2022-08-28T04:46:38.527Z,96321.03
2022-08-28T04:49:09.170Z,96315.34
2022-08-28T04:51:41.875Z,96324.09
2022-08-28T04:54:12.271Z,96312.09
2022-08-28T04:56:40.911Z,96316.16
2022-08-28T04:59:10.463Z,96319.22
2022-08-28T05:01:39.236Z,96315.19
2022-08-28T05:04:11.947Z,96325.56
2022-08-28T05:06:43.887Z,96317.59
2022-08-28T05:09:12.204Z,96322.81
2022-08-28T05:11:41.299Z,96325.06
2022-08-28T05:14:15.393Z,96327.50
2022-08-28T05:16:47.949Z,96328.31
2022-08-28T05:19:19.371Z,96327.50
2022-08-28T05:21:49.065Z,96332.69
2022-08-28T05:24:18.060Z,96331.56
2022-08-28T05:26:48.319Z,96335.94
2022-08-28T05:29:17.742Z,96335.13
2022-08-28T05:31:47.848Z,96340.94
2022-08-28T05:34:17.829Z,96347.56
2022-08-28T05:36:46.953Z,96350.63
2022-08-28T05:39:17.370Z,96350.09
2022-08-28T05:41:47.653Z,96357.88
2022-08-28T05:44:18.029Z,96355.63
2022-08-28T05:46:49.051Z,96356.75
2022-08-28T05:49:20.400Z,96362.56
2022-08-28T05:51:50.890Z,96359.81
2022-08-28T05:54:19.956Z,96358.69
2022-08-28T05:56:49.309Z,96363.38
2022-08-28T05:59:18.756Z,96355.94
2022-08-28T06:01:49.206Z,96358.09
2022-08-28T06:04:24.094Z,96370.09
2022-08-28T06:06:52.783Z,96366.84
2022-08-28T06:09:28.759Z,96370.91
2022-08-28T06:12:00.259Z,96369.59
2022-08-28T06:14:29.715Z,96366.84
2022-08-28T06:16:59.887Z,96367.84
2022-08-28T06:19:31.920Z,96375.00
2022-08-28T06:22:07.287Z,96375.28
2022-08-28T06:24:36.448Z,96379.47
2022-08-28T06:27:06.175Z,96375.09
2022-08-28T06:29:34.876Z,96379.97
2022-08-28T06:32:05.952Z,96376.94
2022-08-28T06:34:35.777Z,96379.59
2022-08-28T06:37:04.982Z,96377.03
2022-08-28T06:39:33.352Z,96372.84
2022-08-28T06:42:02.002Z,96373.06
2022-08-28T06:44:32.565Z,96376.31
2022-08-28T06:47:00.923Z,96370.91
2022-08-28T06:49:29.715Z,96381.00
2022-08-28T06:51:59.815Z,96378.44
2022-08-28T06:54:30.913Z,96378.34
2022-08-28T06:56:59.837Z,96389.25
2022-08-28T07:02:19.180Z,96390.56
2022-08-28T07:04:51.760Z,96396.28
2022-08-28T07:07:32.426Z,96398.88
2022-08-28T07:10:01.183Z,96402.66
2022-08-28T07:12:30.259Z,96403.78
2022-08-28T07:14:58.626Z,96409.69
2022-08-28T07:17:27.750Z,96409.88
2022-08-28T07:19:56.587Z,96411.00
2022-08-28T07:22:26.550Z,96410.06
2022-08-28T07:24:55.957Z,96414.13
2022-08-28T07:27:25.259Z,96418.34
2022-08-28T07:29:54.430Z,96418.03
2022-08-28T07:32:22.779Z,96416.25
2022-08-28T07:34:52.273Z,96419.72
2022-08-28T07:37:20.842Z,96419.41
2022-08-28T07:39:51.323Z,96418.16
2022-08-28T07:42:35.664Z,96414.06
2022-08-28T07:45:05.435Z,96418.94
2022-08-28T07:47:34.178Z,96425.53
2022-08-28T07:50:03.321Z,96425.25
2022-08-28T07:52:31.658Z,96423.53
2022-08-28T07:55:01.691Z,96426.97
2022-08-28T07:57:32.415Z,96432.53
2022-08-28T08:00:00.727Z,96427.34
2022-08-28T08:02:30.398Z,96439.34
2022-08-28T08:04:59.069Z,96433.34
2022-08-28T08:07:27.374Z,96434.00
2022-08-28T08:09:56.487Z,96446.19
2022-08-28T08:12:29.492Z,96446.00
2022-08-28T08:14:57.916Z,96437.94
2022-08-28T08:17:27.135Z,96445.56
2022-08-28T08:19:55.567Z,96451.44
2022-08-28T08:22:25.649Z,96444.81
2022-08-28T08:24:55.285Z,96448.31
2022-08-28T08:27:24.586Z,96451.41
2022-08-28T08:29:54.618Z,96451.41
2022-08-28T08:32:23.008Z,96448.53
2022-08-28T08:34:56.014Z,96458.66
2022-08-28T08:37:24.823Z,96460.34
2022-08-28T08:39:54.613Z,96462.38
2022-08-28T08:42:26.876Z,96459.28
2022-08-28T08:44:59.370Z,96459.34
2022-08-28T08:47:36.399Z,96459.88
2022-08-28T08:50:08.452Z,96465.72
2022-08-28T08:52:41.419Z,96470.91
2022-08-28T08:55:32.615Z,96465.06
2022-08-28T08:58:07.542Z,96473.50
2022-08-28T09:00:44.644Z,96473.81
2022-08-28T09:03:17.123Z,96471.19
2022-08-28T09:05:50.793Z,96479.81
2022-08-28T09:08:32.834Z,96475.75
2022-08-28T09:11:07.548Z,96482.09
2022-08-28T09:13:47.350Z,96482.59
2022-08-28T09:16:25.215Z,96480.69
2022-08-28T09:18:57.320Z,96487.50
2022-08-28T09:21:31.143Z,96484.75
2022-08-28T09:24:05.756Z,96480.53
2022-08-28T09:26:35.816Z,96477.28
2022-08-28T09:29:07.734Z,96484.78
2022-08-28T09:31:41.579Z,96487.69
2022-08-28T09:34:24.054Z,96489.28
2022-08-28T09:36:54.213Z,96495.09
2022-08-28T09:39:24.741Z,96494.25
2022-08-28T09:42:15.590Z,96497.53
2022-08-28T09:44:53.606Z,96496.75
2022-08-28T09:47:46.048Z,96491.84
2022-08-28T09:50:35.169Z,96494.41
2022-08-28T09:53:20.974Z,96494.69
2022-08-28T09:55:57.927Z,96498.09
2022-08-28T09:58:39.061Z,96494.50
2022-08-28T10:01:38.097Z,96495.34
2022-08-28T10:04:25.840Z,96496.44
2022-08-28T10:06:58.286Z,96496.38
2022-08-28T10:09:34.115Z,96499.63
2022-08-28T10:12:15.585Z,96503.72
2022-08-28T10:14:55.177Z,96500.66
2022-08-28T10:17:38.318Z,96502.63
2022-08-28T10:20:15.935Z,96499.69
2022-08-28T10:22:53.883Z,96492.34
2022-08-28T10:25:28.180Z,96503.41
2022-08-28T10:28:12.844Z,96498.97
2022-08-28T10:30:53.341Z,96486.94
2022-08-28T10:33:36.709Z,96498.94
2022-08-28T10:36:26.441Z,96496.38
2022-08-28T10:39:13.035Z,96498.19
2022-08-28T10:41:47.278Z,96496.91
2022-08-28T10:44:22.040Z,96494.59
2022-08-28T10:46:53.513Z,96497.19
2022-08-28T10:49:27.567Z,96494.28
2022-08-28T10:52:03.277Z,96495.75
2022-08-28T10:54:41.811Z,96494.50
2022-08-28T10:57:23.550Z,96506.56
2022-08-28T10:59:54.749Z,96499.81
2022-08-28T11:02:27.045Z,96503.50
2022-08-28T11:04:58.923Z,96506.00
2022-08-28T11:07:33.502Z,96503.88
2022-08-28T11:10:45.768Z,96508.13
2022-08-28T11:13:34.413Z,96505.19
2022-08-28T11:16:13.316Z,96505.31
2022-08-28T11:19:15.432Z,96511.41
2022-08-28T11:21:48.971Z,96511.66
2022-08-28T11:24:35.194Z,96508.06
2022-08-28T11:27:17.977Z,96502.38
2022-08-28T11:30:22.748Z,96497.31
2022-08-28T11:33:08.114Z,96498.06
2022-08-28T11:35:44.387Z,96502.00
2022-08-28T11:38:15.598Z,96505.59
2022-08-28T11:41:11.173Z,96508.53
2022-08-28T11:43:41.670Z,96503.63
2022-08-28T11:46:26.276Z,96508.47
2022-08-28T11:48:57.352Z,96509.34
2022-08-28T11:51:56.936Z,96508.44
2022-08-28T11:54:39.420Z,96510.94
2022-08-28T11:57:18.710Z,96516.06
2022-08-28T12:00:02.623Z,96515.34
2022-08-28T12:02:50.553Z,96519.16
2022-08-28T12:05:54.927Z,96513.91
2022-08-28T12:09:09.573Z,96515.72
2022-08-28T12:11:59.501Z,96506.75
2022-08-28T12:15:08.885Z,96509.53
2022-08-28T12:17:50.121Z,96514.47
2022-08-28T12:20:40.314Z,96513.28
2022-08-28T12:23:41.450Z,96505.34
2022-08-28T12:26:18.918Z,96510.84
2022-08-28T12:28:50.459Z,96510.38
2022-08-28T12:32:13.453Z,96497.06
2022-08-28T12:34:53.927Z,96508.69
2022-08-28T12:37:51.015Z,96505.94
2022-08-28T12:40:25.279Z,96516.38
2022-08-28T12:42:56.575Z,96508.56
2022-08-28T12:45:29.129Z,96511.72
2022-08-28T12:48:01.042Z,96510.00
2022-08-28T12:50:35.605Z,96513.28
2022-08-28T12:53:12.624Z,96508.56
2022-08-28T12:55:42.002Z,96505.63
2022-08-28T12:58:15.370Z,96511.16
2022-08-28T13:00:54.210Z,96515.78
2022-08-28T13:03:23.599Z,96509.41
2022-08-28T13:06:01.346Z,96508.81
2022-08-28T13:08:30.602Z,96491.69
2022-08-28T13:10:59.362Z,96514.06
2022-08-28T13:13:35.810Z,96508.09
2022-08-28T13:16:06.177Z,96504.78
2022-08-28T13:18:51.788Z,96511.38
2022-08-28T13:21:34.023Z,96512.09
2022-08-28T13:24:27.591Z,96517.78
2022-08-28T13:27:07.016Z,96517.38
2022-08-28T13:29:36.850Z,96518.84
2022-08-28T13:32:08.395Z,96518.50
2022-08-28T13:34:48.049Z,96530.53
2022-08-28T13:37:44.432Z,96514.66
2022-08-28T13:40:38.154Z,96512.97
2022-08-28T13:43:08.105Z,96507.88
2022-08-28T13:45:43.520Z,96501.03
2022-08-28T13:48:14.334Z,96499.19
2022-08-28T13:50:46.601Z,96497.41
2022-08-28T13:53:19.529Z,96500.31
2022-08-28T13:55:50.453Z,96500.63
2022-08-28T13:58:19.123Z,96507.97
2022-08-28T14:00:51.118Z,96502.31
2022-08-28T14:03:38.906Z,96500.63
2022-08-28T14:06:12.292Z,96506.59
2022-08-28T14:08:44.080Z,96508.44
2022-08-28T14:11:15.073Z,96502.53
2022-08-28T14:13:46.881Z,96503.63
2022-08-28T14:16:24.596Z,96507.56
2022-08-28T14:18:54.232Z,96502.97
2022-08-28T14:21:24.361Z,96513.50
2022-08-28T14:23:54.772Z,96511.16
2022-08-28T14:26:23.565Z,96516.69
2022-08-28T14:28:51.870Z,96511.16
2022-08-28T14:31:21.112Z,96509.97
2022-08-28T14:33:55.089Z,96506.44
2022-08-28T14:36:27.059Z,96513.94
2022-08-28T14:39:02.828Z,96508.00
2022-08-28T14:41:35.565Z,96506.69
2022-08-28T14:44:04.989Z,96509.44
2022-08-28T14:46:36.557Z,96506.09
2022-08-28T14:49:08.786Z,96503.16
2022-08-28T14:51:39.379Z,96495.63
2022-08-28T14:54:12.693Z,96503.66
2022-08-28T14:56:41.710Z,96477.06
2022-08-28T14:59:17.539Z,96496.44
2022-08-28T15:01:49.471Z,96493.25
2022-08-28T15:04:23.015Z,96499.94
2022-08-28T15:06:52.707Z,96491.25
2022-08-28T15:09:23.016Z,96498.09
2022-08-28T15:11:51.394Z,96499.19
2022-08-28T15:14:20.742Z,96504.63
2022-08-28T15:16:50.678Z,96498.16
2022-08-28T15:19:19.559Z,96500.09
2022-08-28T15:21:51.526Z,96501.75
2022-08-28T15:24:24.613Z,96495.81
2022-08-28T15:26:54.236Z,96496.63
2022-08-28T15:29:22.547Z,96500.78
2022-08-28T15:31:53.261Z,96504.81
2022-08-28T15:34:24.162Z,96498.53
2022-08-28T15:36:55.676Z,96499.53
2022-08-28T15:39:44.292Z,96494.34
2022-08-28T15:42:13.517Z,96494.19
2022-08-28T15:44:43.090Z,96497.44
2022-08-28T15:47:12.540Z,96502.88
2022-08-28T15:49:46.137Z,96497.44
2022-08-28T15:52:19.947Z,96499.41
2022-08-28T15:54:50.074Z,96495.56
2022-08-28T15:57:19.469Z,96500.09
2022-08-28T15:59:49.828Z,96501.19
2022-08-28T16:02:20.971Z,96499.59
2022-08-28T16:04:50.016Z,96498.34
2022-08-28T16:07:20.060Z,96492.47
2022-08-28T16:09:50.454Z,96490.50
2022-08-28T16:12:19.231Z,96501.25
2022-08-28T16:14:48.724Z,96492.69
2022-08-28T16:17:18.677Z,96494.19
2022-08-28T16:19:48.397Z,96498.63
2022-08-28T16:22:18.642Z,96495.03
2022-08-28T16:24:47.094Z,96493.38
2022-08-28T16:27:17.655Z,96496.41
2022-08-28T16:29:49.469Z,96496.34
2022-08-28T16:32:21.631Z,96489.59
2022-08-28T16:34:50.182Z,96490.19
2022-08-28T16:37:20.966Z,96489.28
2022-08-28T16:39:56.458Z,96488.53
2022-08-28T16:42:28.646Z,96490.72
2022-08-28T16:45:02.061Z,96489.41
2022-08-28T16:47:33.019Z,96490.06
2022-08-28T16:50:08.872Z,96487.22
2022-08-28T16:52:38.016Z,96485.22
2022-08-28T16:55:08.591Z,96492.34
2022-08-28T16:57:39.595Z,96492.13
2022-08-28T17:00:13.577Z,96493.41
2022-08-28T17:02:43.313Z,96499.56
2022-08-28T17:05:13.299Z,96482.28
2022-08-28T17:07:43.994Z,96495.38
2022-08-28T17:10:14.233Z,96498.41
2022-08-28T17:12:44.646Z,96506.88
2022-08-28T17:15:13.908Z,96504.78
2022-08-28T17:17:43.364Z,96508.94
2022-08-28T17:20:33.483Z,96514.28
2022-08-28T17:23:02.234Z,96514.53
2022-08-28T17:25:31.084Z,96516.34
2022-08-28T17:28:01.360Z,96514.13
2022-08-28T17:30:30.725Z,96512.41
2022-08-28T17:32:59.112Z,96517.13
2022-08-28T17:35:27.812Z,96525.56
2022-08-28T17:37:57.464Z,96521.38
2022-08-28T17:40:26.187Z,96529.34
2022-08-28T17:42:55.463Z,96527.47
2022-08-28T17:45:25.506Z,96521.97
2022-08-28T17:47:54.318Z,96531.31
2022-08-28T17:50:23.478Z,96526.31
2022-08-28T17:52:52.219Z,96538.00
2022-08-28T17:55:21.291Z,96538.88
2022-08-28T17:57:49.713Z,96539.44
2022-08-28T18:00:19.321Z,96545.06
2022-08-28T18:02:52.070Z,96548.38
2022-08-28T18:05:21.005Z,96552.84
2022-08-28T18:07:49.444Z,96554.66
2022-08-28T18:10:17.836Z,96550.44
2022-08-28T18:12:48.166Z,96556.19
2022-08-28T18:15:17.041Z,96550.00
2022-08-28T18:17:50.345Z,96564.09
2022-08-28T18:20:20.971Z,96557.47
2022-08-28T18:22:49.689Z,96564.00
2022-08-28T18:25:33.086Z,96565.69
2022-08-28T18:28:01.770Z,96565.38
2022-08-28T18:30:30.463Z,96568.03
2022-08-28T18:32:59.448Z,96572.13
2022-08-28T18:35:31.875Z,96575.91
2022-08-28T18:38:01.630Z,96578.00
2022-08-28T18:40:31.616Z,96581.78
2022-08-28T18:43:00.693Z,96580.34
2022-08-28T18:45:29.551Z,96585.94
2022-08-28T18:47:58.562Z,96579.28
2022-08-28T18:50:28.273Z,96580.75
2022-08-28T18:52:59.391Z,96593.47
2022-08-28T18:55:31.056Z,96598.25
2022-08-28T18:58:02.199Z,96593.84
2022-08-28T19:00:31.807Z,96595.13
2022-08-28T19:03:00.453Z,96600.03
2022-08-28T19:05:30.141Z,96598.06
2022-08-28T19:08:02.232Z,96608.00
2022-08-28T19:10:34.386Z,96603.28
2022-08-28T19:13:04.006Z,96613.19
2022-08-28T19:15:33.071Z,96599.34
2022-08-28T19:18:02.967Z,96608.28
2022-08-28T19:20:32.097Z,96601.75
2022-08-28T19:23:02.007Z,96611.66
2022-08-28T19:25:31.882Z,96605.47
2022-08-28T19:28:01.645Z,96611.94
2022-08-28T19:30:33.391Z,96608.53
2022-08-28T19:33:03.715Z,96614.06
2022-08-28T19:35:34.034Z,96613.56
2022-08-28T19:38:03.766Z,96623.97
2022-08-28T19:40:34.051Z,96622.16
2022-08-28T19:43:02.935Z,96623.09
2022-08-28T19:45:34.389Z,96626.31
2022-08-28T19:48:03.257Z,96621.59
2022-08-28T19:50:32.662Z,96626.97
2022-08-28T19:53:01.121Z,96628.09
2022-08-28T19:55:31.535Z,96626.25
2022-08-28T19:58:00.467Z,96633.03
2022-08-28T20:00:30.047Z,96637.25
2022-08-28T20:02:58.800Z,96640.16
2022-08-28T20:05:27.547Z,96641.63
2022-08-28T20:07:55.942Z,96634.28
2022-08-28T20:10:24.323Z,96636.06
2022-08-28T20:12:55.011Z,96642.22
2022-08-28T20:15:24.416Z,96642.53
2022-08-28T20:17:52.832Z,96642.16
2022-08-28T20:20:25.671Z,96643.41
2022-08-28T20:22:58.343Z,96643.75
2022-08-28T20:25:27.633Z,96638.34
2022-08-28T20:28:01.532Z,96634.28
2022-08-28T20:30:31.086Z,96638.59
2022-08-28T20:33:01.227Z,96638.59
2022-08-28T20:35:30.574Z,96642.31
2022-08-28T20:37:58.947Z,96641.81
2022-08-28T20:40:27.815Z,96648.25
2022-08-28T20:42:59.960Z,96647.06
2022-08-28T20:45:28.595Z,96641.38
2022-08-28T20:47:57.692Z,96649.25
2022-08-28T20:50:26.642Z,96648.84
2022-08-28T20:52:55.947Z,96635.16
2022-08-28T20:55:24.338Z,96646.19
2022-08-28T20:57:53.341Z,96644.69
2022-08-28T21:00:25.698Z,96634.28
2022-08-28T21:02:54.493Z,96639.41
2022-08-28T21:05:22.891Z,96650.25
2022-08-28T21:07:51.606Z,96652.00
2022-08-28T21:10:20.111Z,96651.19
2022-08-28T21:12:48.814Z,96654.53
2022-08-28T21:15:17.226Z,96655.69
2022-08-28T21:17:48.527Z,96655.09
2022-08-28T21:20:17.437Z,96658.88
2022-08-28T21:22:47.314Z,96659.31
2022-08-28T21:25:17.099Z,96658.47
2022-08-28T21:27:47.335Z,96662.66
2022-08-28T21:30:18.392Z,96656.22
2022-08-28T21:32:51.229Z,96657.63
2022-08-28T21:35:21.981Z,96660.19
2022-08-28T21:37:51.115Z,96663.75
2022-08-28T21:42:48.409Z,96659.56
2022-08-28T21:45:17.149Z,96669.75
2022-08-28T21:47:48.391Z,96662.84
2022-08-28T21:50:17.560Z,96666.19
2022-08-28T21:52:46.329Z,96668.53
2022-08-28T21:55:17.405Z,96660.88
2022-08-28T21:57:47.016Z,96660.59
2022-08-28T22:00:19.234Z,96669.66
2022-08-28T22:02:49.571Z,96661.41
2022-08-28T22:05:18.274Z,96666.41
2022-08-28T22:07:47.189Z,96658.84
2022-08-28T22:10:16.416Z,96674.88
2022-08-28T22:12:44.853Z,96672.50
2022-08-28T22:15:14.130Z,96671.88
2022-08-28T22:17:42.478Z,96671.03
2022-08-28T22:20:12.967Z,96675.22
2022-08-28T22:22:59.162Z,96672.16
2022-08-28T22:25:27.469Z,96682.38
2022-08-28T22:27:56.430Z,96664.91
2022-08-28T22:30:25.006Z,96667.28
2022-08-28T22:32:53.855Z,96671.25
2022-08-28T22:35:25.351Z,96671.56
2022-08-28T22:37:53.778Z,96671.31
2022-08-28T22:40:24.537Z,96668.13
2022-08-28T22:42:52.893Z,96682.50
2022-08-28T22:45:22.439Z,96674.63
2022-08-28T22:47:51.570Z,96667.56
2022-08-28T22:50:20.441Z,96676.72
2022-08-28T22:52:51.262Z,96678.13
2022-08-28T22:55:21.858Z,96684.25
2022-08-28T22:57:51.712Z,96690.03
2022-08-28T23:00:23.857Z,96677.38
2022-08-28T23:02:54.366Z,96679.09
2022-08-28T23:05:23.518Z,96674.50
2022-08-28T23:07:55.000Z,96677.53
2022-08-28T23:10:42.102Z,96676.72
2022-08-28T23:13:14.594Z,96672.66
2022-08-28T23:15:44.572Z,96677.78
2022-08-28T23:18:13.062Z,96675.91
2022-08-28T23:20:42.582Z,96681.47
2022-08-28T23:23:12.900Z,96678.72
2022-08-28T23:25:41.247Z,96677.91
2022-08-28T23:28:10.387Z,96678.06
2022-08-28T23:30:38.896Z,96683.13
2022-08-28T23:33:08.801Z,96685.91
2022-08-28T23:35:38.031Z,96675.72
2022-08-28T23:38:07.320Z,96675.78
2022-08-28T23:40:37.444Z,96670.38
2022-08-28T23:43:06.647Z,96679.47
2022-08-28T23:45:35.036Z,96687.22
2022-08-28T23:48:04.635Z,96684.75
2022-08-28T23:50:34.266Z,96675.47
2022-08-28T23:53:03.242Z,96674.34
2022-08-28T23:55:33.430Z,96670.56
2022-08-28T23:58:04.113Z,96671.13
